Time;durP1;ratioP1;P1;durP2;ratioP2;P2;SDS_P1;SDS_P2;PMS_P1;PMS_P2;Temp;Humidity;BMP_temperature;BMP_pressure;BME280_temperature;BME280_humidity;BME280_pressure;Samples;Min_cycle;Max_cycle;Signal;HPM_P1;HPM_P2
2023/04/10 00:03:58;;;;;;;5.93;2.70;;;;;;;15.72;60.90;101153.50;12801386;22;98956;-80
2023/04/10 00:09:03;;;;;;;6.32;2.92;;;;;;;15.29;61.58;101147.56;12788484;22;99044;-80
2023/04/10 00:14:06;;;;;;;7.45;3.60;;;;;;;14.73;63.19;101153.50;12799925;22;97919;-80
2023/04/10 00:19:11;;;;;;;5.63;3.13;;;;;;;14.51;63.83;101154.47;12801075;22;99158;-80
2023/04/10 00:24:15;;;;;;;9.13;3.83;;;;;;;14.73;63.39;101161.47;12800788;22;97855;-80
2023/04/10 00:29:18;;;;;;;7.78;3.78;;;;;;;14.91;63.00;101165.13;12800957;22;98980;-80
2023/04/10 00:34:23;;;;;;;6.70;3.80;;;;;;;14.86;62.79;101175.06;12800343;22;99354;-80
2023/04/10 00:39:27;;;;;;;6.72;3.58;;;;;;;14.86;62.89;101171.53;12800415;22;97685;-80
2023/04/10 00:44:30;;;;;;;4.93;2.70;;;;;;;14.73;63.08;101172.06;12798858;22;99268;-80
2023/04/10 00:49:35;;;;;;;8.07;3.78;;;;;;;14.32;64.89;101164.09;12801242;22;99183;-80
2023/04/10 00:54:39;;;;;;;7.05;3.50;;;;;;;14.33;64.96;101169.31;12800410;22;98961;-80
2023/04/10 00:59:43;;;;;;;6.65;4.15;;;;;;;14.37;64.58;101165.63;12800779;22;98888;-80
2023/04/10 01:04:48;;;;;;;8.43;3.88;;;;;;;14.43;64.36;101170.69;12800038;22;99236;-80
2023/04/10 01:09:59;;;;;;;6.72;3.40;;;;;;;14.55;63.56;101156.06;12799699;22;99060;-80
2023/04/10 01:15:09;;;;;;;6.00;3.70;;;;;;;14.29;63.83;101137.75;12800572;22;98924;-80
2023/04/10 01:20:19;;;;;;;6.55;3.45;;;;;;;14.29;64.38;101124.50;12800095;22;98956;-80
2023/04/10 01:25:40;;;;;;;7.70;3.53;;;;;;;14.29;64.75;101119.22;12799806;22;98965;-80
2023/04/10 01:30:47;;;;;;;7.38;3.50;;;;;;;14.37;64.32;101123.25;12800105;22;99157;-80
2023/04/10 01:35:55;;;;;;;11.13;3.72;;;;;;;14.46;63.87;101125.53;12800049;22;99209;-80
2023/04/10 01:41:00;;;;;;;8.77;4.05;;;;;;;14.64;63.24;101119.44;12800420;22;99000;-80
2023/04/10 01:46:05;;;;;;;8.90;4.18;;;;;;;14.31;64.12;101122.66;12800013;22;98917;-80
2023/04/10 01:51:10;;;;;;;7.97;4.82;;;;;;;14.19;64.97;101112.56;12799060;22;98940;-80
2023/04/10 01:56:14;;;;;;;11.02;4.40;;;;;;;13.88;66.20;101107.63;12798417;22;99349;-80
2023/04/10 02:01:22;;;;;;;8.52;4.35;;;;;;;14.25;65.24;101120.25;12799096;22;97735;-80
2023/04/10 02:06:43;;;;;;;8.23;4.70;;;;;;;14.22;65.07;101112.44;12802691;22;99115;-80
2023/04/10 02:11:58;;;;;;;9.40;4.43;;;;;;;14.15;65.61;101121.56;12799629;22;99407;-80
2023/04/10 02:17:03;;;;;;;;;;;;;;;14.03;66.81;101106.16;12802414;22;98940;-80
2023/04/10 02:22:07;;;;;;;7.07;4.27;;;;;;;14.13;66.16;101112.81;12802776;22;99106;-80
2023/04/10 02:27:10;;;;;;;6.82;4.15;;;;;;;14.54;64.84;101110.19;12801544;22;98032;-80
2023/04/10 02:32:16;;;;;;;8.95;4.53;;;;;;;14.68;64.63;101115.75;12803623;22;98930;-80
2023/04/10 02:37:19;;;;;;;7.07;4.30;;;;;;;14.83;64.04;101115.09;12801741;22;98967;-80
2023/04/10 02:42:22;;;;;;;7.40;3.97;;;;;;;14.72;64.80;101130.59;12801474;22;99116;-80
2023/04/10 02:47:27;;;;;;;8.48;3.30;;;;;;;15.08;63.46;101137.91;12797632;22;99012;-80
2023/04/10 02:52:30;;;;;;;8.88;3.95;;;;;;;15.09;63.36;101155.53;12801639;22;98967;-80
2023/04/10 02:57:35;;;;;;;5.20;3.00;;;;;;;15.06;63.03;101163.63;12802038;22;99024;-80
2023/04/10 03:02:39;;;;;;;5.50;3.15;;;;;;;15.18;63.23;101155.13;12801643;22;98895;-80
2023/04/10 03:07:43;;;;;;;6.40;3.55;;;;;;;14.98;64.18;101174.53;12801605;22;99271;-80
2023/04/10 03:12:47;;;;;;;8.10;3.05;;;;;;;15.16;63.72;101168.44;12800600;22;99393;-80
2023/04/10 03:17:52;;;;;;;8.48;3.50;;;;;;;15.21;63.94;101173.53;12801395;22;98899;-80
2023/04/10 03:22:55;;;;;;;7.63;3.58;;;;;;;15.17;64.09;101172.81;12802711;22;98860;-80
2023/04/10 03:27:58;;;;;;;7.47;3.50;;;;;;;15.18;64.03;101174.53;12801183;22;98786;-80
2023/04/10 03:33:03;;;;;;;6.18;3.50;;;;;;;15.28;64.25;101180.31;12801889;22;97967;-80
2023/04/10 03:38:06;;;;;;;5.75;3.30;;;;;;;15.15;64.58;101176.44;12800396;22;99198;-80
2023/04/10 03:43:09;;;;;;;7.70;3.53;;;;;;;15.20;65.04;101177.13;12800826;22;98906;-80
2023/04/10 03:48:14;;;;;;;9.20;4.28;;;;;;;15.15;65.33;101182.63;12801378;22;99089;-80
2023/04/10 03:53:17;;;;;;;6.97;4.78;;;;;;;15.12;65.37;101179.22;12801029;22;99112;-80
2023/04/10 03:58:20;;;;;;;8.60;4.40;;;;;;;14.94;65.95;101180.88;12800955;22;98758;-80
2023/04/10 04:03:25;;;;;;;7.47;4.68;;;;;;;15.12;65.66;101184.53;12801065;22;99061;-80
2023/04/10 04:08:28;;;;;;;8.63;4.70;;;;;;;15.14;65.50;101193.28;12800398;22;98971;-80
2023/04/10 04:13:32;;;;;;;8.55;4.53;;;;;;;15.22;65.43;101197.31;12802335;22;99151;-80
2023/04/10 04:18:36;;;;;;;9.80;4.97;;;;;;;15.24;65.22;101189.31;12801093;22;98855;-80
2023/04/10 04:23:39;;;;;;;11.15;4.38;;;;;;;15.20;65.37;101198.34;12801726;22;98902;-80
2023/04/10 04:28:42;;;;;;;9.57;4.63;;;;;;;15.23;65.63;101199.06;12799225;22;99120;-80
2023/04/10 04:33:47;;;;;;;7.05;3.90;;;;;;;15.32;65.63;101206.63;12800644;22;99233;-80
2023/04/10 04:38:50;;;;;;;5.80;4.00;;;;;;;15.24;65.73;101214.03;12800159;22;97770;-80
2023/04/10 04:43:54;;;;;;;6.72;4.28;;;;;;;15.25;65.82;101218.41;12800627;22;98907;-80
2023/04/10 04:48:59;;;;;;;7.97;4.33;;;;;;;15.36;65.85;101215.31;12800705;22;99136;-80
2023/04/10 04:54:02;;;;;;;7.47;4.35;;;;;;;15.45;65.79;101230.84;12800692;22;98868;-80
2023/04/10 04:59:05;;;;;;;7.97;4.18;;;;;;;15.27;66.03;101234.28;12800205;22;99066;-80
2023/04/10 05:04:10;;;;;;;7.07;4.03;;;;;;;15.31;65.95;101249.13;12801922;22;98030;-81
2023/04/10 05:09:13;;;;;;;10.18;4.25;;;;;;;15.42;65.58;101255.72;12799848;22;97908;-80
2023/04/10 05:14:17;;;;;;;7.57;4.25;;;;;;;15.18;66.37;101259.38;12801363;22;98857;-80
2023/04/10 05:19:21;;;;;;;7.22;4.90;;;;;;;15.16;66.12;101263.91;12798912;22;99039;-80
2023/04/10 05:24:24;;;;;;;9.20;4.72;;;;;;;15.00;66.26;101264.59;12800751;22;98632;-80
2023/04/10 05:29:28;;;;;;;6.43;4.32;;;;;;;15.13;65.79;101282.56;12799880;22;99034;-81
2023/04/10 05:34:32;;;;;;;7.00;4.47;;;;;;;15.25;65.60;101290.00;12799580;22;99305;-80
2023/04/10 05:39:36;;;;;;;13.98;4.55;;;;;;;15.14;65.70;101296.69;12799446;22;99383;-80
2023/04/10 05:44:39;;;;;;;5.65;3.33;;;;;;;14.89;65.09;101310.06;12800076;22;99301;-80
2023/04/10 05:49:44;;;;;;;5.22;3.25;;;;;;;14.92;63.89;101319.72;12799685;22;99058;-80
2023/04/10 05:54:47;;;;;;;7.07;3.25;;;;;;;15.09;63.68;101325.19;12800617;22;99087;-80
2023/04/10 05:59:50;;;;;;;6.53;3.40;;;;;;;15.19;63.29;101330.03;12799626;22;98823;-80
2023/04/10 06:04:55;;;;;;;7.90;3.63;;;;;;;15.19;63.27;101327.41;12797255;22;98091;-80
2023/04/10 06:09:59;;;;;;;5.88;2.67;;;;;;;14.97;63.13;101345.09;12797386;22;99409;-80
2023/04/10 06:15:02;;;;;;;8.55;3.00;;;;;;;14.73;63.27;101357.53;12799243;22;99473;-80
2023/04/10 06:20:09;;;;;;;7.80;3.08;;;;;;;14.58;63.18;101360.78;12799113;22;98930;-80
2023/04/10 06:25:12;;;;;;;7.82;3.05;;;;;;;14.42;63.01;101372.03;12799013;22;97901;-81
2023/04/10 06:30:15;;;;;;;7.20;2.85;;;;;;;14.30;62.52;101372.44;12798580;22;99087;-80
2023/04/10 06:35:21;;;;;;;6.93;2.88;;;;;;;14.36;61.98;101370.47;12798844;22;99266;-80
2023/04/10 06:40:24;;;;;;;10.63;3.33;;;;;;;14.58;61.66;101374.03;12798402;22;98958;-80
2023/04/10 06:45:28;;;;;;;7.35;2.92;;;;;;;14.56;61.71;101375.84;12800610;22;99345;-80
2023/04/10 06:50:32;;;;;;;6.55;2.83;;;;;;;14.63;61.27;101374.69;12801689;22;99148;-80
2023/04/10 06:55:36;;;;;;;7.57;2.35;;;;;;;14.91;60.89;101374.50;12798703;22;99441;-81
2023/04/10 07:00:39;;;;;;;5.68;2.50;;;;;;;15.30;60.21;101380.03;12800520;22;98140;-81
2023/04/10 07:05:44;;;;;;;5.63;2.25;;;;;;;16.21;58.19;101384.88;12801405;22;98987;-81
2023/04/10 07:10:47;;;;;;;6.47;2.28;;;;;;;16.84;56.32;101385.47;12801227;22;99109;-81
2023/04/10 07:15:50;;;;;;;5.13;2.03;;;;;;;17.61;54.10;101387.03;12801397;22;98854;-81
2023/04/10 07:20:55;;;;;;;4.25;1.77;;;;;;;17.86;52.53;101383.97;12801548;22;99339;-81
2023/04/10 07:25:58;;;;;;;;;;;;;;;18.03;51.51;101376.84;12801977;22;98902;-81
2023/04/10 07:31:02;;;;;;;6.25;2.10;;;;;;;18.55;51.00;101368.72;12801428;22;98873;-81
2023/04/10 07:36:08;;;;;;;4.30;1.83;;;;;;;18.64;49.57;101355.78;12802398;22;98899;-81
2023/04/10 07:41:12;;;;;;;3.75;1.65;;;;;;;19.63;47.89;101345.59;12800831;22;98913;-81
2023/04/10 07:46:16;;;;;;;6.30;1.93;;;;;;;19.74;47.67;101345.81;12801404;22;99158;-82
2023/04/10 07:51:21;;;;;;;4.13;1.73;;;;;;;19.75;47.47;101336.88;12800144;22;97964;-81
2023/04/10 07:56:24;;;;;;;4.97;1.92;;;;;;;20.45;46.29;101352.09;12800742;22;98061;-82
2023/04/10 08:01:27;;;;;;;5.22;1.88;;;;;;;20.85;46.24;101340.59;12800209;22;98092;-82
2023/04/10 08:06:32;;;;;;;5.90;1.93;;;;;;;21.85;44.73;101345.44;12801290;22;98912;-82
2023/04/10 08:11:36;;;;;;;5.20;2.03;;;;;;;22.49;43.89;101353.38;12800315;22;98124;-81
2023/04/10 08:16:40;;;;;;;6.20;2.10;;;;;;;22.93;43.60;101344.84;12801111;22;97953;-81
2023/04/10 08:21:45;;;;;;;7.07;2.03;;;;;;;23.22;42.99;101357.81;12799475;22;99121;-81
2023/04/10 08:26:48;;;;;;;7.55;2.10;;;;;;;23.65;42.28;101353.66;12801749;22;99292;-82
2023/04/10 08:31:53;;;;;;;7.70;2.30;;;;;;;24.73;40.46;101360.31;12800682;22;99268;-82
2023/04/10 08:36:58;;;;;;;4.40;2.33;;;;;;;25.73;38.78;101370.81;12800503;22;99005;-82
2023/04/10 08:42:02;;;;;;;5.47;2.47;;;;;;;26.68;37.32;101368.72;12799296;22;98867;-82
2023/04/10 08:47:06;;;;;;;7.32;2.33;;;;;;;26.89;37.10;101387.56;12800570;22;99174;-82
2023/04/10 08:52:15;;;;;;;4.72;2.10;;;;;;;26.35;36.76;101384.31;12800708;22;99043;-82
2023/04/10 08:57:21;;;;;;;4.50;2.05;;;;;;;24.97;39.51;101402.38;12800356;22;99185;-82
2023/04/10 09:02:24;;;;;;;6.13;2.58;;;;;;;23.72;41.31;101409.66;12800692;22;99024;-82
2023/04/10 09:07:29;;;;;;;;;;;;;;;21.76;45.55;101421.94;12800234;22;98849;-82
2023/04/10 09:12:43;;;;;;;5.05;2.10;;;;;;;20.41;48.92;101433.50;12800113;22;98725;-83
2023/04/10 09:17:56;;;;;;;;;;;;;;;19.49;52.42;101442.56;12800969;22;99222;-83
2023/04/10 09:23:01;;;;;;;15.75;4.78;;;;;;;19.69;51.75;101444.03;12800073;22;99017;-83
2023/04/10 09:28:06;;;;;;;9.73;2.72;;;;;;;19.45;52.98;101435.66;12799240;22;98917;-86
2023/04/10 09:33:22;;;;;;;7.20;2.00;;;;;;;19.33;53.27;101436.31;12799485;22;98919;-85
2023/04/10 09:38:27;;;;;;;3.75;1.70;;;;;;;19.62;51.80;101442.69;12800466;22;98973;-86
2023/04/10 09:43:30;;;;;;;7.18;3.08;;;;;;;19.47;52.69;101443.56;12799705;22;98847;-85
2023/04/10 09:48:33;;;;;;;5.45;1.75;;;;;;;19.44;52.69;101449.94;12799779;22;98964;-85
2023/04/10 09:53:49;;;;;;;4.00;1.50;;;;;;;19.74;52.60;101448.16;12799445;22;98859;-84
2023/04/10 09:58:56;;;;;;;3.88;1.60;;;;;;;19.81;52.12;101449.53;12798289;22;99165;-85
2023/04/10 10:04:02;;;;;;;2.85;1.13;;;;;;;19.38;53.28;101455.59;12798218;22;99039;-83
2023/04/10 10:09:06;;;;;;;2.75;1.60;;;;;;;19.12;54.12;101459.75;12799039;22;98848;-86
2023/04/10 10:14:16;;;;;;;3.63;1.60;;;;;;;18.99;54.25;101471.19;12798878;22;99121;-85
2023/04/10 10:19:27;;;;;;;27.50;3.80;;;;;;;18.98;54.64;101474.78;12800262;22;99045;-86
2023/04/10 10:24:33;;;;;;;4.32;1.40;;;;;;;18.83;55.92;101470.28;12800378;22;97728;-85
2023/04/10 10:29:39;;;;;;;3.92;1.73;;;;;;;18.83;55.91;101472.97;12801847;22;99252;-85
2023/04/10 10:34:46;;;;;;;5.57;1.85;;;;;;;19.15;56.76;101478.25;12801825;22;99336;-83
2023/04/10 10:39:59;;;;;;;4.85;1.60;;;;;;;19.10;55.17;101477.63;12801132;22;98966;-83
2023/04/10 10:45:11;;;;;;;3.35;1.35;;;;;;;19.73;53.84;101485.66;12801420;22;99500;-83
2023/04/10 10:50:14;;;;;;;2.42;1.00;;;;;;;19.50;54.39;101484.31;12801841;22;99039;-83
2023/04/10 10:55:37;;;;;;;3.10;1.17;;;;;;;19.52;54.38;101473.53;12800607;22;99006;-84
2023/04/10 11:01:11;;;;;;;1.73;0.90;;;;;;;19.86;53.93;101478.63;12802957;22;98503;-84
2023/04/10 11:06:18;;;;;;;2.72;0.90;;;;;;;20.28;52.28;101468.09;12791829;22;98990;-84
2023/04/10 11:11:26;;;;;;;2.72;1.10;;;;;;;20.58;51.75;101457.38;12801216;22;98956;-85
2023/04/10 11:16:45;;;;;;;3.13;1.08;;;;;;;22.10;48.71;101455.41;12800925;22;98796;-85
2023/04/10 11:22:07;;;;;;;1.75;1.08;;;;;;;22.43;48.30;101451.28;12801475;22;99482;-86
2023/04/10 11:27:47;;;;;;;3.60;1.10;;;;;;;22.23;47.75;101438.38;12801949;22;99089;-86
2023/04/10 11:32:52;;;;;;;3.85;1.05;;;;;;;24.45;42.38;101440.66;12801443;22;98594;-85
2023/04/10 11:38:19;;;;;;;2.28;1.20;;;;;;;24.32;43.69;101434.53;12801745;22;98916;-85
2023/04/10 11:43:26;;;;;;;2.35;0.98;;;;;;;24.19;43.21;101431.03;12801354;22;98828;-83
2023/04/10 11:48:32;;;;;;;2.45;1.20;;;;;;;23.94;44.54;101425.84;12803035;22;98998;-89
2023/04/10 11:53:37;;;;;;;4.32;1.50;;;;;;;22.75;46.15;101415.94;12802279;22;98892;-88
2023/04/10 11:58:49;;;;;;;3.60;1.33;;;;;;;22.52;45.92;101407.69;12806016;22;99012;-90
2023/04/10 12:03:56;;;;;;;3.20;1.20;;;;;;;22.53;46.77;101413.91;12808101;22;99659;-88
2023/04/10 12:09:01;;;;;;;2.28;1.20;;;;;;;22.58;46.10;101403.72;12800828;22;99194;-87
2023/04/10 12:14:10;;;;;;;3.40;1.27;;;;;;;21.92;47.63;101401.19;12801380;22;99295;-87
2023/04/10 12:19:17;;;;;;;3.10;1.40;;;;;;;22.42;47.43;101401.25;12801664;22;98865;-87
2023/04/10 12:24:43;;;;;;;3.13;1.73;;;;;;;22.31;47.31;101389.56;12800879;22;99040;-87
2023/04/10 12:29:53;;;;;;;3.03;1.65;;;;;;;22.03;47.98;101387.09;12801220;22;98956;-83
2023/04/10 12:35:00;;;;;;;3.75;1.63;;;;;;;22.41;46.20;101383.47;12801249;22;99323;-86
2023/04/10 12:40:08;;;;;;;3.05;1.58;;;;;;;22.41;46.38;101375.41;12802105;22;98996;-86
2023/04/10 12:45:16;;;;;;;2.40;1.45;;;;;;;23.41;44.21;101376.09;12802570;22;98958;-85
2023/04/10 12:50:22;;;;;;;2.80;1.60;;;;;;;23.65;44.79;101368.91;12806876;22;98931;-84
2023/04/10 12:55:27;;;;;;;3.20;1.50;;;;;;;23.53;43.86;101365.31;12800813;22;99222;-83
2023/04/10 13:00:33;;;;;;;3.83;1.60;;;;;;;23.72;42.65;101358.56;12800213;22;98902;-83
2023/04/10 13:05:37;;;;;;;3.10;1.60;;;;;;;23.21;44.01;101350.75;12801360;22;98938;-84
2023/04/10 13:10:42;;;;;;;4.25;1.67;;;;;;;22.84;45.32;101354.44;12800807;22;99096;-84
2023/04/10 13:15:49;;;;;;;3.70;1.70;;;;;;;23.40;44.64;101350.22;12801340;22;99101;-83
2023/04/10 13:20:54;;;;;;;4.65;1.75;;;;;;;23.22;44.68;101348.91;12800597;22;98939;-82
2023/04/10 13:25:59;;;;;;;3.95;1.70;;;;;;;23.54;43.47;101339.34;12800555;22;98966;-83
2023/04/10 13:31:05;;;;;;;2.17;1.30;;;;;;;23.64;43.91;101341.19;12800546;22;98952;-82
2023/04/10 13:36:09;;;;;;;2.63;1.67;;;;;;;23.40;43.75;101347.53;12801116;22;102309;-84
2023/04/10 13:41:13;;;;;;;2.80;1.70;;;;;;;23.24;44.83;101338.91;12800234;22;98931;-84
2023/04/10 13:46:19;;;;;;;;;;;;;;;23.33;44.36;101335.53;12800450;22;99100;-85
2023/04/10 13:51:23;;;;;;;3.13;1.80;;;;;;;23.00;44.60;101335.38;12799356;22;99212;-82
2023/04/10 13:56:29;;;;;;;4.55;1.63;;;;;;;23.47;44.02;101333.53;12802125;22;99094;-83
2023/04/10 14:01:35;;;;;;;2.70;1.30;;;;;;;23.81;43.02;101336.34;12803163;22;98966;-85
2023/04/10 14:06:41;;;;;;;4.00;1.65;;;;;;;23.40;43.97;101331.41;12802343;22;99001;-83
2023/04/10 14:11:45;;;;;;;2.30;1.20;;;;;;;23.36;44.13;101333.47;12802369;22;99102;-83
2023/04/10 14:16:50;;;;;;;3.45;1.27;;;;;;;23.84;43.74;101314.63;12802485;22;99097;-84
2023/04/10 14:21:55;;;;;;;3.03;1.35;;;;;;;23.76;42.88;101315.19;12802808;22;102201;-85
2023/04/10 14:27:00;;;;;;;;;;;;;;;23.89;42.70;101312.41;12803821;22;99292;-83
2023/04/10 14:32:06;;;;;;;3.53;1.42;;;;;;;23.91;42.93;101310.47;12803024;22;98761;-85
2023/04/10 14:37:12;;;;;;;2.63;1.30;;;;;;;23.84;43.25;101315.44;12802426;22;99092;-84
2023/04/10 14:42:18;;;;;;;2.53;1.40;;;;;;;24.01;43.15;101320.41;12800600;22;98978;-82
2023/04/10 14:47:24;;;;;;;3.58;1.80;;;;;;;23.55;43.50;101303.41;12802004;22;98976;-84
2023/04/10 14:52:28;;;;;;;4.28;1.70;;;;;;;23.94;43.68;101302.16;12802221;22;99030;-83
2023/04/10 14:57:31;;;;;;;3.33;1.75;;;;;;;23.71;43.38;101303.94;12801574;22;98960;-83
2023/04/10 15:02:37;;;;;;;4.20;1.83;;;;;;;23.70;43.16;101296.88;12801866;22;98987;-83
2023/04/10 15:07:40;;;;;;;3.60;1.60;;;;;;;23.46;43.15;101288.81;12801557;22;99021;-85
2023/04/10 15:12:43;;;;;;;2.80;1.80;;;;;;;23.00;44.16;101292.41;12802008;22;98959;-84
2023/04/10 15:17:48;;;;;;;3.08;1.70;;;;;;;23.26;43.82;101299.38;12803281;22;99154;-84
2023/04/10 15:22:51;;;;;;;4.63;1.65;;;;;;;23.07;44.34;101291.84;12801826;22;98985;-83
2023/04/10 15:27:55;;;;;;;3.58;1.77;;;;;;;22.78;45.29;101278.88;12801538;22;99247;-83
2023/04/10 15:33:00;;;;;;;4.00;1.60;;;;;;;23.18;45.08;101291.03;12800718;22;99738;-82
2023/04/10 15:38:03;;;;;;;4.50;1.42;;;;;;;23.21;45.15;101274.69;12801763;22;98986;-83
2023/04/10 15:43:06;;;;;;;3.67;1.50;;;;;;;22.94;45.19;101272.25;12801150;22;98989;-82
2023/04/10 15:48:10;;;;;;;5.63;1.60;;;;;;;22.75;45.74;101262.97;12801653;22;98897;-82
2023/04/10 15:53:14;;;;;;;7.47;1.60;;;;;;;22.56;46.49;101264.31;12801404;22;99085;-83
2023/04/10 15:58:17;;;;;;;3.13;1.67;;;;;;;22.30;47.03;101272.53;12801496;22;98972;-83
2023/04/10 16:03:22;;;;;;;2.67;1.60;;;;;;;22.11;47.92;101274.81;12801131;22;99219;-82
2023/04/10 16:08:26;;;;;;;3.05;1.65;;;;;;;21.97;48.72;101264.19;12802761;22;99026;-83
2023/04/10 16:13:29;;;;;;;3.23;1.40;;;;;;;22.21;49.53;101265.16;12801213;22;98986;-82
2023/04/10 16:18:34;;;;;;;3.55;1.45;;;;;;;22.16;49.62;101265.47;12801513;22;98728;-81
2023/04/10 16:23:37;;;;;;;4.13;1.58;;;;;;;22.07;49.78;101260.75;12799712;22;99032;-83
2023/04/10 16:28:40;;;;;;;5.75;1.80;;;;;;;21.84;50.42;101257.97;12801283;22;98896;-83
2023/04/10 16:33:45;;;;;;;6.97;1.80;;;;;;;21.93;50.51;101258.19;12801337;22;99210;-82
2023/04/10 16:38:49;;;;;;;4.68;2.00;;;;;;;21.74;51.59;101255.09;12800655;22;99501;-82
2023/04/10 16:43:52;;;;;;;4.45;1.60;;;;;;;21.81;51.50;101261.72;12800939;22;99011;-83
2023/04/10 16:48:57;;;;;;;6.07;2.10;;;;;;;21.59;51.13;101268.69;12800908;22;99031;-83
2023/04/10 16:54:00;;;;;;;3.53;1.60;;;;;;;21.42;51.40;101270.69;12800746;22;99246;-83
2023/04/10 16:59:03;;;;;;;5.57;1.80;;;;;;;21.48;51.41;101266.75;12801733;22;98889;-81
2023/04/10 17:04:08;;;;;;;5.13;1.70;;;;;;;21.50;51.41;101276.38;12800582;22;98099;-84
2023/04/10 17:09:11;;;;;;;5.40;1.73;;;;;;;21.31;51.41;101275.06;12799842;22;97865;-84
2023/04/10 17:14:14;;;;;;;4.57;1.83;;;;;;;21.15;51.75;101279.69;12799515;22;98821;-82
2023/04/10 17:19:19;;;;;;;6.63;1.50;;;;;;;21.04;51.69;101287.56;12800427;22;99357;-83
2023/04/10 17:24:22;;;;;;;4.75;1.70;;;;;;;20.97;51.57;101283.59;12800292;22;98813;-81
2023/04/10 17:29:25;;;;;;;5.07;1.67;;;;;;;20.97;51.77;101288.94;12800537;22;99040;-83
2023/04/10 17:34:30;;;;;;;3.78;1.50;;;;;;;20.96;51.68;101288.09;12800543;22;99395;-82
2023/04/10 17:39:33;;;;;;;3.40;1.90;;;;;;;20.91;51.92;101281.34;12800285;22;98848;-83
2023/04/10 17:44:36;;;;;;;5.25;1.85;;;;;;;20.86;51.82;101289.63;12800245;22;98844;-83
2023/04/10 17:49:41;;;;;;;4.90;1.90;;;;;;;20.72;52.40;101288.84;12801077;22;98181;-83
2023/04/10 17:54:44;;;;;;;5.57;1.95;;;;;;;20.78;52.42;101296.47;12800267;22;99033;-82
2023/04/10 17:59:48;;;;;;;4.47;1.67;;;;;;;20.70;52.51;101296.97;12800015;22;98920;-81
2023/04/10 18:04:53;;;;;;;6.38;1.67;;;;;;;20.69;52.39;101297.06;12798420;22;97901;-83
2023/04/10 18:09:56;;;;;;;5.68;1.80;;;;;;;20.48;52.80;101301.13;12799475;22;97844;-83
2023/04/10 18:14:59;;;;;;;3.05;1.50;;;;;;;20.26;52.94;101305.13;12799352;22;99204;-81
2023/04/10 18:20:04;;;;;;;2.92;1.60;;;;;;;20.00;53.42;101300.53;12799745;22;99192;-81
2023/04/10 18:25:08;;;;;;;3.55;1.52;;;;;;;19.90;53.86;101303.88;12799300;22;99084;-81
2023/04/10 18:30:12;;;;;;;7.03;1.50;;;;;;;19.77;54.22;101300.25;12799613;22;98952;-82
2023/04/10 18:35:17;;;;;;;5.30;1.80;;;;;;;19.53;54.57;101313.25;12799198;22;98937;-82
2023/04/10 18:40:21;;;;;;;4.25;1.38;;;;;;;19.46;54.78;101309.22;12801494;22;99221;-81
2023/04/10 18:45:24;;;;;;;4.50;1.73;;;;;;;19.32;55.72;101322.47;12801792;22;99175;-81
2023/04/10 18:50:28;;;;;;;6.30;2.00;;;;;;;19.30;56.59;101327.91;12801647;22;97981;-81
2023/04/10 18:55:31;;;;;;;;;;;;;;;19.21;57.35;101323.13;12801015;22;98982;-81
2023/04/10 19:00:34;;;;;;;5.50;1.90;;;;;;;19.12;57.37;101334.34;12802931;22;99059;-81
2023/04/10 19:05:39;;;;;;;6.05;2.08;;;;;;;19.08;57.64;101345.25;12802034;22;98983;-81
2023/04/10 19:10:42;;;;;;;;;;;;;;;19.09;58.23;101341.66;12802226;22;98964;-82
2023/04/10 19:15:47;;;;;;;4.38;1.90;;;;;;;19.10;57.86;101352.22;12802201;22;99081;-81
2023/04/10 19:20:51;;;;;;;5.82;2.33;;;;;;;18.93;58.21;101355.00;12801115;22;97755;-81
2023/04/10 19:25:55;;;;;;;6.75;2.00;;;;;;;19.00;58.20;101356.38;12802053;22;99011;-81
2023/04/10 19:30:58;;;;;;;6.00;2.00;;;;;;;19.01;58.17;101360.75;12802933;22;99487;-81
2023/04/10 19:36:03;;;;;;;5.18;2.20;;;;;;;18.99;58.18;101367.97;12801596;22;99212;-81
2023/04/10 19:41:13;;;;;;;5.38;2.17;;;;;;;18.88;58.64;101377.53;12801532;22;98960;-81
2023/04/10 19:46:17;;;;;;;5.88;1.77;;;;;;;18.80;59.12;101385.13;12800450;22;99388;-81
2023/04/10 19:51:22;;;;;;;3.10;1.47;;;;;;;18.81;58.57;101397.50;12801378;22;97310;-81
2023/04/10 19:56:27;;;;;;;4.68;2.08;;;;;;;18.76;58.70;101397.75;12801193;22;98872;-81
2023/04/10 20:01:30;;;;;;;7.10;1.90;;;;;;;18.71;59.12;101397.16;12801699;22;97819;-81
2023/04/10 20:06:35;;;;;;;2.78;1.80;;;;;;;18.60;59.48;101406.66;12801512;22;98995;-81
2023/04/10 20:11:37;;;;;;;;;;;;;;;18.48;60.46;101410.00;12801655;22;99288;-81
2023/04/10 20:16:41;;;;;;;4.05;2.00;;;;;;;18.50;60.02;101424.09;12801580;22;98991;-80
2023/04/10 20:21:45;;;;;;;4.55;2.15;;;;;;;18.43;60.56;101426.22;12802106;22;99100;-81
2023/04/10 20:26:48;;;;;;;4.72;1.85;;;;;;;18.45;60.38;101431.47;12801042;22;99148;-81
2023/04/10 20:31:52;;;;;;;5.57;1.92;;;;;;;18.62;60.93;101423.44;12801890;22;98933;-81
2023/04/10 20:36:56;;;;;;;3.80;1.80;;;;;;;18.69;60.82;101424.84;12800216;22;98828;-81
2023/04/10 20:42:00;;;;;;;4.82;1.80;;;;;;;18.64;60.43;101426.91;12800638;22;97818;-81
2023/04/10 20:47:04;;;;;;;4.10;2.10;;;;;;;18.59;60.98;101424.47;12799817;22;98270;-81
2023/04/10 20:52:09;;;;;;;4.40;2.40;;;;;;;18.40;61.32;101434.38;12801125;22;98834;-81
2023/04/10 20:57:12;;;;;;;;;;;;;;;18.11;62.46;101443.88;12801410;22;99421;-81
2023/04/10 21:02:16;;;;;;;4.57;2.53;;;;;;;18.09;61.62;101450.22;12800821;22;99295;-81
2023/04/10 21:07:21;;;;;;;5.63;2.28;;;;;;;17.93;62.27;101446.63;12800830;22;98985;-81
2023/04/10 21:12:24;;;;;;;4.57;2.08;;;;;;;17.79;62.97;101460.66;12801544;22;99174;-81
2023/04/10 21:17:30;;;;;;;5.15;2.55;;;;;;;17.61;63.21;101452.69;12800577;22;99121;-81
2023/04/10 21:22:35;;;;;;;4.85;2.60;;;;;;;17.50;63.43;101452.38;12800878;22;99378;-81
2023/04/10 21:27:37;;;;;;;;;;;;;;;17.33;64.43;101450.50;12799700;22;99493;-81
2023/04/10 21:32:41;;;;;;;6.57;2.72;;;;;;;17.16;64.39;101449.56;12801114;22;99398;-80
2023/04/10 21:37:45;;;;;;;5.22;2.47;;;;;;;17.29;63.67;101446.28;12800418;22;98933;-81
2023/04/10 21:42:48;;;;;;;4.45;2.22;;;;;;;17.19;64.13;101444.13;12800175;22;98980;-81
2023/04/10 21:47:51;;;;;;;4.63;2.45;;;;;;;16.97;65.15;101450.44;12800381;22;99024;-81
2023/04/10 21:52:56;;;;;;;5.78;2.53;;;;;;;16.93;65.23;101453.31;12799832;22;99389;-81
2023/04/10 21:57:59;;;;;;;5.30;2.70;;;;;;;16.95;65.19;101454.09;12799987;22;99108;-81
2023/04/10 22:03:02;;;;;;;7.00;2.45;;;;;;;16.80;65.33;101437.09;12800943;22;98987;-81
2023/04/10 22:08:07;;;;;;;5.38;2.40;;;;;;;16.65;65.95;101448.41;12800096;22;99000;-80
2023/04/10 22:13:10;;;;;;;;;;;;;;;16.61;66.29;101444.19;12800419;22;99127;-81
2023/04/10 22:18:25;;;;;;;3.30;2.42;;;;;;;16.63;65.32;101452.06;12801423;22;99127;-81
2023/04/10 22:23:30;;;;;;;5.05;2.70;;;;;;;16.64;65.40;101452.00;12802199;22;99117;-81
2023/04/10 22:28:33;;;;;;;4.03;2.38;;;;;;;16.53;65.95;101459.59;12802360;22;99523;-81
2023/04/10 22:33:36;;;;;;;4.53;2.72;;;;;;;16.34;66.92;101452.50;12802813;22;98944;-80
2023/04/10 22:38:41;;;;;;;5.53;2.97;;;;;;;16.06;67.25;101455.50;12802267;22;99233;-81
2023/04/10 22:43:44;;;;;;;3.53;2.10;;;;;;;16.47;66.21;101456.34;12802182;22;98967;-81
2023/04/10 22:48:47;;;;;;;5.95;2.45;;;;;;;16.43;66.83;101460.09;12802024;22;99021;-81
2023/04/10 22:53:52;;;;;;;4.85;2.70;;;;;;;16.33;66.90;101456.06;12802621;22;99314;-81
2023/04/10 22:58:55;;;;;;;4.18;2.60;;;;;;;16.24;66.63;101457.31;12802021;22;98883;-81
2023/04/10 23:03:58;;;;;;;5.47;2.92;;;;;;;16.13;66.88;101456.94;12801873;22;98864;-81
2023/04/10 23:09:03;;;;;;;5.30;2.60;;;;;;;15.88;67.78;101449.16;12800359;22;98985;-81
2023/04/10 23:14:06;;;;;;;5.38;2.97;;;;;;;16.06;67.01;101447.53;12801720;22;99355;-81
2023/04/10 23:19:09;;;;;;;5.40;2.80;;;;;;;16.14;67.26;101449.81;12802090;22;98931;-81
2023/04/10 23:24:14;;;;;;;4.20;2.67;;;;;;;16.19;66.85;101447.81;12802308;22;98954;-81
2023/04/10 23:29:17;;;;;;;5.28;2.40;;;;;;;16.21;67.34;101448.63;12800867;22;99512;-81